Time;durP1;ratioP1;P1;durP2;ratioP2;P2;SDS_P1;SDS_P2;PMS_P1;PMS_P2;Temp;Humidity;BMP_temperature;BMP_pressure;BME280_temperature;BME280_humidity;BME280_pressure;Samples;Min_cycle;Max_cycle;Signal;HPM_P1;HPM_P2
2023/10/30 00:00:29;;;;;;;2.23;1.40;;;15.80;99.20;;;16.08;64.04;97678.09;4955372;28;123767;-86
2023/10/30 00:02:58;;;;;;;1.77;1.33;;;15.80;99.20;;;16.06;64.06;97678.47;4961585;28;114336;-85
2023/10/30 00:05:28;;;;;;;4.17;1.50;;;15.80;99.20;;;16.06;64.21;97681.25;4957607;28;114361;-86
2023/10/30 00:07:55;;;;;;;2.70;1.63;;;15.80;99.30;;;16.05;64.20;97670.50;4962361;28;123029;-87
2023/10/30 00:10:24;;;;;;;2.03;1.30;;;15.70;99.20;;;16.06;64.25;97684.03;4959079;28;123845;-84
2023/10/30 00:12:53;;;;;;;1.60;1.30;;;16.30;99.50;;;16.06;64.24;97666.53;4959548;28;113639;-86
2023/10/30 00:15:19;;;;;;;2.20;1.60;;;15.80;99.30;;;16.06;64.22;97680.47;4961866;28;113905;-87
2023/10/30 00:17:46;;;;;;;2.37;1.47;;;16.00;99.40;;;16.06;64.17;97689.63;4959008;28;124218;-88
2023/10/30 00:20:13;;;;;;;5.93;2.00;;;15.70;99.30;;;16.06;64.41;97658.16;4950112;28;123215;-87
2023/10/30 00:22:39;;;;;;;2.90;1.60;;;15.80;99.40;;;16.05;64.39;97648.22;4959859;28;114174;-88
2023/10/30 00:25:06;;;;;;;1.50;1.30;;;15.70;99.40;;;16.05;64.34;97667.72;4960947;28;113985;-86
2023/10/30 00:27:37;;;;;;;2.47;1.83;;;15.70;99.40;;;16.06;64.39;97669.31;4958534;28;123682;-88
2023/10/30 00:30:05;;;;;;;3.93;2.20;;;15.80;99.50;;;16.04;64.67;97672.50;4957486;28;123868;-86
2023/10/30 00:32:31;;;;;;;2.80;1.50;;;15.80;99.60;;;16.04;64.72;97671.66;4941214;28;115154;-86
2023/10/30 00:34:58;;;;;;;2.50;1.70;;;17.10;99.90;;;16.04;64.76;97677.25;4935794;28;113925;-86
2023/10/30 00:37:24;;;;;;;2.60;1.70;;;15.80;99.60;;;16.05;64.85;97696.38;4957172;28;123823;-87
2023/10/30 00:39:51;;;;;;;3.37;1.50;;;16.40;99.90;;;16.06;64.89;97686.03;4954363;28;123832;-87
2023/10/30 00:42:17;;;;;;;2.50;1.63;;;15.90;99.70;;;16.04;65.14;97682.81;4956608;28;113987;-86
2023/10/30 00:44:44;;;;;;;2.80;1.60;;;16.30;99.90;;;15.98;65.35;97701.84;4961080;28;113917;-87
2023/10/30 00:47:10;;;;;;;2.37;1.77;;;18.20;99.90;;;15.96;65.35;97720.09;4950057;28;123075;-86
2023/10/30 00:49:37;;;;;;;3.60;1.90;;;15.70;99.80;;;15.96;65.33;97693.06;4945279;28;124025;-87
2023/10/30 00:52:03;;;;;;;2.10;1.60;;;15.70;99.90;;;15.95;65.45;97704.56;4955003;28;114333;-86
2023/10/30 00:54:30;;;;;;;2.53;1.60;;;15.70;99.90;;;15.94;65.61;97717.72;4938751;28;113638;-86
2023/10/30 00:56:56;;;;;;;4.40;2.20;;;15.70;99.90;;;15.97;65.48;97722.53;4945120;28;123690;-85
2023/10/30 00:59:23;;;;;;;2.20;1.70;;;15.70;99.90;;;15.99;65.45;97734.09;4953847;28;123658;-89
2023/10/30 01:01:58;;;;;;;1.87;1.67;;;15.70;99.90;;;16.00;65.65;97727.34;4956510;28;114162;-87
2023/10/30 01:04:28;;;;;;;2.33;1.73;;;15.70;99.90;;;16.01;65.55;97733.72;4957084;28;113855;-88
2023/10/30 01:06:54;;;;;;;2.27;1.60;;;15.70;99.90;;;16.00;65.50;97738.50;4940100;28;123295;-86
2023/10/30 01:09:21;;;;;;;3.30;2.00;;;15.70;99.90;;;16.01;65.63;97731.75;4943396;28;122953;-86
2023/10/30 01:11:47;;;;;;;3.83;1.97;;;16.00;99.90;;;16.00;65.56;97737.69;4982890;28;113365;-87
2023/10/30 01:14:16;;;;;;;3.57;1.90;;;15.70;99.90;;;15.99;65.56;97713.81;4963200;28;113948;-88
2023/10/30 01:16:45;;;;;;;2.00;1.70;;;15.70;99.90;;;16.00;65.81;97704.25;4957081;28;124027;-86
2023/10/30 01:19:14;;;;;;;1.80;1.57;;;15.70;99.90;;;16.00;65.72;97704.25;4973441;28;123484;-90
2023/10/30 01:21:40;;;;;;;2.37;1.40;;;15.70;99.90;;;16.01;65.99;97711.44;4958408;28;115116;-87
2023/10/30 01:24:08;;;;;;;1.90;1.40;;;15.70;99.90;;;16.04;65.64;97713.47;4961147;28;114958;-87
2023/10/30 01:26:34;;;;;;;2.00;1.50;;;15.70;99.90;;;16.05;65.75;97717.88;4954043;28;124228;-87
2023/10/30 01:29:01;;;;;;;1.80;1.33;;;15.70;99.90;;;16.05;65.71;97715.88;4959550;28;123844;-87
2023/10/30 01:31:27;;;;;;;3.30;1.67;;;15.70;99.90;;;16.03;65.74;97721.03;4956570;28;114096;-86
2023/10/30 01:34:00;;;;;;;2.60;1.63;;;15.70;99.90;;;16.02;65.89;97719.41;4959282;28;114083;-85
2023/10/30 01:36:26;;;;;;;2.17;1.80;;;18.20;99.90;;;16.04;66.01;97724.59;4946526;28;124471;-85
2023/10/30 01:38:53;;;;;;;1.87;1.40;;;15.70;99.90;;;16.05;65.90;97724.25;4948666;28;122648;-86
2023/10/30 01:41:19;;;;;;;2.40;1.67;;;16.60;99.90;;;16.06;65.86;97725.03;4946814;28;113946;-84
2023/10/30 01:43:46;;;;;;;1.70;1.30;;;15.70;99.90;;;16.07;65.83;97724.69;4949076;28;114350;-85
2023/10/30 01:46:14;;;;;;;1.60;1.30;;;15.80;99.90;;;16.07;65.80;97726.66;4946622;28;124196;-86
2023/10/30 01:48:41;;;;;;;2.07;1.60;;;15.90;99.90;;;16.07;65.95;97723.88;4948159;28;123792;-87
2023/10/30 01:51:08;;;;;;;2.73;1.80;;;15.70;99.90;;;16.06;65.74;97720.25;4962701;28;114168;-86
2023/10/30 01:53:39;;;;;;;2.00;1.77;;;15.80;99.90;;;16.05;65.80;97735.38;4954917;28;114165;-87
2023/10/30 01:56:08;;;;;;;2.40;1.47;;;15.70;99.90;;;16.05;65.96;97734.59;4983589;28;124703;-87
2023/10/30 01:58:35;;;;;;;2.80;1.87;;;15.80;99.90;;;16.06;66.05;97741.75;4964972;28;123738;-86
2023/10/30 02:01:02;;;;;;;2.03;1.50;;;16.10;99.90;;;16.08;65.79;97733.84;4957951;28;114082;-87
2023/10/30 02:03:28;;;;;;;2.20;1.47;;;15.80;99.90;;;16.08;65.87;97729.06;4947860;28;114034;-87
2023/10/30 02:05:55;;;;;;;2.13;1.50;;;15.80;99.90;;;16.09;65.79;97729.84;4945494;28;124185;-87
2023/10/30 02:08:22;;;;;;;3.17;1.80;;;16.20;99.90;;;16.10;65.78;97728.69;4953367;28;123865;-86
2023/10/30 02:10:48;;;;;;;2.10;1.60;;;15.80;99.90;;;16.10;65.85;97715.56;4977468;28;115203;-87
2023/10/30 02:13:15;;;;;;;2.67;1.93;;;17.00;99.90;;;16.09;66.05;97715.94;4947425;28;115075;-86
2023/10/30 02:15:42;;;;;;;2.60;1.53;;;15.80;99.90;;;16.06;65.96;97713.91;4957658;28;124664;-87
2023/10/30 02:18:11;;;;;;;2.90;1.80;;;17.40;99.90;;;16.05;65.95;97704.75;4961683;28;124084;-87
2023/10/30 02:20:39;;;;;;;3.70;1.93;;;15.80;99.90;;;16.05;66.04;97701.16;4970039;28;113691;-87
2023/10/30 02:23:07;;;;;;;2.70;1.93;;;15.70;99.90;;;16.03;65.99;97707.09;4954971;28;114173;-85
2023/10/30 02:25:34;;;;;;;2.53;2.00;;;15.80;99.90;;;16.03;66.16;97704.31;4970248;28;125189;-87
2023/10/30 02:28:01;;;;;;;6.17;2.47;;;15.70;99.90;;;16.03;66.04;97707.09;4967931;28;124010;-86
2023/10/30 02:30:27;;;;;;;2.17;1.73;;;15.70;99.90;;;16.01;66.52;97722.56;4967690;28;114253;-87
2023/10/30 02:32:56;;;;;;;1.73;1.33;;;15.70;99.90;;;16.00;66.31;97715.41;4968123;28;114663;-87
2023/10/30 02:35:22;;;;;;;2.63;1.90;;;15.70;99.90;;;16.00;66.43;97707.84;4984646;28;123675;-87
2023/10/30 02:37:49;;;;;;;2.70;1.60;;;15.70;99.90;;;16.00;66.49;97704.25;4967814;28;124396;-87
2023/10/30 02:40:18;;;;;;;2.33;1.77;;;15.70;99.90;;;15.99;66.29;97697.09;4967398;28;114139;-86
2023/10/30 02:42:45;;;;;;;3.40;1.80;;;15.70;99.90;;;15.98;66.42;97696.25;4966741;28;114325;-87
2023/10/30 02:45:12;;;;;;;3.10;1.50;;;15.70;99.90;;;15.98;66.33;97695.47;4965665;28;124336;-86
2023/10/30 02:47:38;;;;;;;2.40;1.67;;;15.80;99.90;;;15.97;66.44;97693.88;4967658;28;123927;-86
2023/10/30 02:50:06;;;;;;;3.50;1.40;;;15.70;99.90;;;15.96;66.63;97692.25;4966164;28;114301;-86
2023/10/30 02:52:32;;;;;;;2.43;1.43;;;15.70;99.90;;;15.94;66.32;97689.06;4970812;28;114039;-87
2023/10/30 02:54:59;;;;;;;2.23;1.73;;;15.70;99.90;;;15.89;66.50;97682.63;4951853;28;123571;-86
2023/10/30 02:57:28;;;;;;;1.70;1.30;;;14.40;99.90;;;15.89;66.32;97684.59;4966477;28;123755;-87
2023/10/30 02:59:54;;;;;;;1.63;1.43;;;15.60;99.90;;;15.88;66.39;97689.38;4967373;28;115103;-87
2023/10/30 03:02:21;;;;;;;1.90;1.23;;;17.60;99.90;;;15.90;66.14;97688.97;4984578;28;114129;-86
2023/10/30 03:04:48;;;;;;;2.23;1.40;;;15.60;99.90;;;15.87;66.45;97682.19;4967504;28;124078;-87
2023/10/30 03:07:15;;;;;;;1.87;1.43;;;15.60;99.90;;;15.81;66.59;97686.47;4984800;28;123660;-86
2023/10/30 03:09:42;;;;;;;3.03;1.23;;;15.60;99.90;;;15.76;66.40;97688.78;4967875;28;115013;-86
2023/10/30 03:12:08;;;;;;;2.80;1.80;;;15.50;99.90;;;15.74;66.55;97680.78;4962229;28;113929;-87
2023/10/30 03:14:35;;;;;;;2.67;1.70;;;15.50;99.90;;;15.75;66.70;97690.75;4967283;28;124926;-88
2023/10/30 03:17:02;;;;;;;4.33;1.40;;;15.50;99.90;;;15.77;66.47;97691.19;4961638;28;123611;-87
2023/10/30 03:19:29;;;;;;;2.20;1.30;;;15.50;99.90;;;15.78;66.56;97698.34;4967779;28;114068;-87
2023/10/30 03:21:55;;;;;;;2.47;1.30;;;15.50;99.90;;;15.79;66.45;97697.16;4976876;28;113371;-87
2023/10/30 03:24:22;;;;;;;2.20;1.53;;;15.60;99.90;;;15.81;66.32;97697.59;4969525;28;124006;-87
2023/10/30 03:26:50;;;;;;;4.07;1.43;;;15.60;99.90;;;15.82;66.33;97682.50;4966058;28;123817;-87
2023/10/30 03:29:17;;;;;;;1.37;1.23;;;15.60;99.90;;;15.82;66.16;97679.72;4955092;28;114262;-88
2023/10/30 03:31:43;;;;;;;1.93;1.70;;;15.50;99.90;;;15.83;66.25;97674.97;4970882;28;112981;-84
2023/10/30 03:34:10;;;;;;;2.33;1.30;;;15.60;99.90;;;15.84;66.32;97668.19;4970395;28;124173;-85
2023/10/30 03:36:36;;;;;;;2.10;1.50;;;18.00;99.90;;;15.85;66.22;97669.81;4988853;28;123313;-87
2023/10/30 03:39:04;;;;;;;1.80;1.33;;;15.60;99.90;;;15.84;66.14;97674.56;4970850;28;114965;-84
2023/10/30 03:41:31;;;;;;;1.93;1.40;;;15.60;99.90;;;15.85;66.12;97662.28;4956583;28;114167;-86
2023/10/30 03:43:59;;;;;;;1.97;1.50;;;15.50;99.90;;;15.85;66.13;97669.81;4960345;28;123729;-87
2023/10/30 03:46:26;;;;;;;2.70;1.60;;;15.60;99.90;;;15.85;66.04;97665.06;4970316;28;123988;-83
2023/10/30 03:48:52;;;;;;;2.07;1.37;;;15.50;99.90;;;15.86;66.17;97668.63;4969507;28;115271;-87
2023/10/30 03:51:20;;;;;;;1.93;1.53;;;15.30;99.90;;;15.85;65.83;97664.22;4969640;28;115371;-88
2023/10/30 03:53:49;;;;;;;3.37;1.40;;;16.90;99.90;;;15.85;65.81;97670.63;4969969;28;124011;-87
2023/10/30 03:56:15;;;;;;;2.03;1.40;;;15.60;99.90;;;15.85;65.91;97661.44;4970061;28;124223;-87
2023/10/30 03:58:42;;;;;;;2.57;1.30;;;16.00;99.90;;;15.84;65.52;97652.28;4956795;28;114347;-88
2023/10/30 04:01:10;;;;;;;3.00;1.37;;;15.60;99.90;;;15.83;65.92;97645.13;4970501;28;113950;-87
2023/10/30 04:03:37;;;;;;;1.90;1.50;;;15.50;99.90;;;15.83;65.90;97645.13;4986911;28;123694;-87
2023/10/30 04:06:04;;;;;;;1.70;1.30;;;15.80;99.90;;;15.83;65.89;97652.69;4968942;28;124474;-87
2023/10/30 04:08:33;;;;;;;1.90;1.33;;;15.50;99.90;;;15.82;65.89;97643.50;4971019;28;114580;-87
2023/10/30 04:11:09;;;;;;;2.80;1.60;;;15.50;99.90;;;15.81;65.80;97630.75;4970861;28;96882;-87
2023/10/30 04:13:36;;;;;;;2.27;1.30;;;15.50;99.90;;;15.78;65.66;97625.94;4982698;28;123176;-86
2023/10/30 04:16:03;;;;;;;1.40;1.30;;;16.40;99.90;;;15.78;65.80;97630.72;4969077;28;123927;-87
2023/10/30 04:18:30;;;;;;;2.50;1.73;;;15.50;99.90;;;15.77;65.93;97632.72;4987568;28;113741;-87
2023/10/30 04:20:59;;;;;;;1.60;1.20;;;15.40;99.90;;;15.77;65.63;97634.66;4964372;28;113967;-88
2023/10/30 04:23:31;;;;;;;1.47;1.27;;;17.70;99.90;;;15.76;65.64;97638.66;4951729;28;124123;-86
2023/10/30 04:26:00;;;;;;;1.87;1.20;;;15.50;99.90;;;15.74;65.70;97635.41;4948039;28;123783;-89
2023/10/30 04:28:26;;;;;;;1.50;1.10;;;15.40;99.90;;;15.72;65.64;97632.22;4975313;28;113322;-85
2023/10/30 04:30:52;;;;;;;1.90;1.40;;;15.40;99.90;;;15.71;65.51;97625.03;4968152;28;113504;-87
2023/10/30 04:33:21;;;;;;;2.30;1.40;;;15.40;99.90;;;15.70;65.50;97632.59;4969232;28;124305;-87
2023/10/30 04:35:48;;;;;;;1.77;1.20;;;15.40;99.90;;;15.70;65.46;97634.59;4955076;28;121829;-87
2023/10/30 04:38:14;;;;;;;1.90;1.37;;;15.40;99.90;;;15.70;65.23;97624.25;4968732;28;115555;-86
2023/10/30 04:40:43;;;;;;;3.53;1.27;;;15.40;99.90;;;15.70;65.20;97624.25;4968131;28;114961;-86
2023/10/30 04:43:10;;;;;;;2.70;1.43;;;15.40;99.90;;;15.70;65.14;97621.47;4966970;28;124049;-87
2023/10/30 04:45:36;;;;;;;2.23;1.30;;;15.40;99.90;;;15.67;65.25;97611.84;4966913;28;123778;-85
2023/10/30 04:48:05;;;;;;;3.43;1.50;;;15.40;99.90;;;15.65;65.16;97610.59;4969398;28;114147;-86
2023/10/30 04:50:34;;;;;;;2.83;1.50;;;15.40;99.90;;;15.64;65.15;97620.94;4970622;28;113549;-87
2023/10/30 04:53:02;;;;;;;2.67;1.57;;;17.80;99.90;;;15.63;65.01;97624.88;4968969;28;123780;-87
2023/10/30 04:55:29;;;;;;;1.63;1.30;;;15.60;99.90;;;15.62;65.08;97633.63;4969104;28;124405;-89
2023/10/30 04:57:55;;;;;;;1.87;1.50;;;15.30;99.90;;;15.60;65.15;97630.41;4968777;28;114310;-87
2023/10/30 05:00:24;;;;;;;2.47;1.40;;;15.30;99.90;;;15.60;65.20;97630.41;4964055;28;113944;-83
2023/10/30 05:02:53;;;;;;;2.03;1.33;;;15.30;99.90;;;15.59;65.11;97637.16;4961493;28;124725;-87
2023/10/30 05:05:20;;;;;;;5.87;1.63;;;16.90;99.90;;;15.58;65.15;97643.91;4969973;28;123472;-87
2023/10/30 05:07:46;;;;;;;1.67;1.57;;;15.30;99.90;;;15.57;65.03;97636.75;4969517;28;114887;-87
2023/10/30 05:10:13;;;;;;;2.03;1.27;;;16.80;99.90;;;15.54;65.21;97641.06;4971217;28;114017;-86
2023/10/30 05:12:39;;;;;;;2.40;1.63;;;15.30;99.90;;;15.52;65.27;97640.63;4952083;28;123602;-88
2023/10/30 05:15:08;;;;;;;1.53;1.10;;;15.20;99.90;;;15.51;65.34;97644.59;4964871;28;123627;-87
2023/10/30 05:17:41;;;;;;;4.03;1.53;;;15.20;99.90;;;15.50;65.32;97634.66;4950425;28;114229;-87
2023/10/30 05:20:09;;;;;;;1.70;1.50;;;15.20;99.90;;;15.49;65.14;97635.03;4949987;28;114102;-87
2023/10/30 05:22:38;;;;;;;1.80;1.33;;;15.20;99.90;;;15.46;65.27;97628.22;4970287;28;123500;-86
2023/10/30 05:25:05;;;;;;;3.20;1.50;;;15.20;99.90;;;15.46;65.48;97622.66;4966866;28;123623;-86
2023/10/30 05:27:32;;;;;;;2.87;1.50;;;15.20;99.90;;;15.45;65.48;97612.69;4964159;28;115221;-87
2023/10/30 05:30:00;;;;;;;1.57;1.20;;;15.20;99.90;;;15.44;65.60;97606.31;4947684;28;114718;-87
2023/10/30 05:32:26;;;;;;;3.80;1.67;;;15.20;99.90;;;15.43;65.36;97607.50;4959893;28;123948;-87
2023/10/30 05:34:53;;;;;;;1.90;1.67;;;15.10;99.90;;;15.44;65.40;97611.88;4966850;28;123758;-86
2023/10/30 05:37:20;;;;;;;1.83;1.20;;;15.10;99.90;;;15.43;65.40;97604.72;4969524;28;113987;-87
2023/10/30 05:39:52;;;;;;;1.93;1.43;;;16.80;99.90;;;15.43;65.24;97610.28;4966665;28;113784;-87
2023/10/30 05:42:18;;;;;;;2.07;1.60;;;15.20;99.90;;;15.43;65.62;97603.91;4974579;28;123700;-87
2023/10/30 05:44:46;;;;;;;2.10;1.60;;;17.40;99.90;;;15.43;65.47;97603.91;4964433;28;123033;-85
2023/10/30 05:47:14;;;;;;;1.97;1.50;;;15.20;99.90;;;15.42;65.34;97596.72;4968042;28;114303;-87
2023/10/30 05:49:41;;;;;;;1.70;1.40;;;15.20;99.90;;;15.42;65.50;97603.13;4968486;28;114000;-87
2023/10/30 05:52:09;;;;;;;3.03;1.77;;;15.80;99.90;;;15.40;65.26;97599.91;4966793;28;124149;-87
2023/10/30 05:54:36;;;;;;;3.63;1.87;;;15.10;99.90;;;15.39;65.38;97603.88;4968125;28;123672;-86
2023/10/30 05:57:05;;;;;;;2.17;1.70;;;15.10;99.90;;;15.38;65.46;97599.47;4968526;28;114821;-88
2023/10/30 05:59:34;;;;;;;3.47;1.67;;;15.10;99.90;;;15.38;65.47;97602.25;4967990;28;114042;-87
2023/10/30 06:02:00;;;;;;;3.40;1.93;;;15.10;99.90;;;15.38;65.42;97593.09;4968765;28;124570;-87
2023/10/30 06:04:29;;;;;;;2.57;1.83;;;15.60;99.90;;;15.36;65.21;97575.97;4967865;28;124220;-87
2023/10/30 06:06:56;;;;;;;3.30;1.80;;;16.70;99.90;;;15.33;65.21;97577.50;4970068;28;114263;-86
2023/10/30 06:09:22;;;;;;;3.07;2.13;;;15.10;99.90;;;15.31;65.39;97582.66;4970985;28;114057;-86
2023/10/30 06:11:49;;;;;;;2.37;1.70;;;17.10;99.90;;;15.26;65.30;97588.56;4961954;28;124180;-87
2023/10/30 06:14:17;;;;;;;2.37;1.73;;;15.60;99.90;;;15.24;65.59;97579.78;4967633;28;123827;-85
2023/10/30 06:16:44;;;;;;;2.90;2.30;;;15.00;99.90;;;15.24;65.24;97585.34;4982869;28;115251;-85
2023/10/30 06:19:15;;;;;;;3.67;2.00;;;15.70;99.90;;;15.23;65.39;97586.50;4966276;28;114983;-86
2023/10/30 06:21:43;;;;;;;4.53;2.30;;;17.30;99.90;;;15.22;65.53;97576.56;4967926;28;124145;-85
2023/10/30 06:24:10;;;;;;;2.13;1.50;;;15.00;99.90;;;15.22;65.72;97570.97;4966547;28;123565;-86
2023/10/30 06:26:42;;;;;;;2.50;1.63;;;15.80;99.90;;;15.22;65.57;97580.13;4966895;28;115522;-86
2023/10/30 06:29:11;;;;;;;3.60;2.20;;;14.90;99.90;;;15.23;65.31;97575.38;4968089;28;113945;-87
2023/10/30 06:31:37;;;;;;;3.20;2.23;;;15.00;99.90;;;15.23;65.28;97564.22;4952483;28;123965;-87
2023/10/30 06:34:04;;;;;;;3.57;2.00;;;15.00;99.90;;;15.27;65.54;97569.88;4968081;28;123957;-86
2023/10/30 06:36:31;;;;;;;6.90;2.10;;;14.90;99.90;;;15.29;65.58;97568.31;4967592;28;114267;-87
2023/10/30 06:38:59;;;;;;;2.10;1.80;;;16.70;99.90;;;15.31;65.35;97568.72;4968109;28;113954;-85
2023/10/30 06:41:28;;;;;;;1.93;1.73;;;15.00;99.90;;;15.32;65.11;97580.69;4961617;28;124056;-84
2023/10/30 06:43:54;;;;;;;2.40;2.03;;;15.00;99.90;;;15.32;65.12;97581.50;4948076;28;123861;-83
2023/10/30 06:46:26;;;;;;;3.37;2.23;;;15.00;99.90;;;15.32;65.06;97592.63;4956344;28;114399;-81
2023/10/30 06:48:52;;;;;;;2.20;1.60;;;17.30;99.90;;;15.32;64.83;97598.19;4958701;28;113977;-85
2023/10/30 06:51:19;;;;;;;3.30;2.00;;;15.00;99.90;;;15.32;65.01;97598.19;4950861;28;124152;-83
2023/10/30 06:53:45;;;;;;;3.40;2.00;;;15.00;99.90;;;15.33;65.09;97599.78;4964886;28;124322;-85
2023/10/30 06:56:15;;;;;;;3.60;1.97;;;15.00;99.90;;;15.34;64.84;97587.50;4954580;28;114465;-87
2023/10/30 06:58:43;;;;;;;2.27;1.80;;;15.20;99.90;;;15.39;64.79;97589.13;4965898;28;114179;-85
2023/10/30 07:01:10;;;;;;;4.03;1.80;;;16.80;99.90;;;15.43;64.89;97590.00;4964927;28;124624;-85
2023/10/30 07:03:36;;;;;;;3.50;2.33;;;15.20;99.90;;;15.47;64.75;97588.06;4954598;28;123737;-86
2023/10/30 07:06:10;;;;;;;3.30;2.30;;;15.10;99.80;;;15.52;64.55;97592.50;4950616;28;115504;-86
2023/10/30 07:08:37;;;;;;;6.90;2.20;;;15.10;99.80;;;15.56;64.24;97596.16;4951946;28;115517;-82
2023/10/30 07:11:07;;;;;;;2.80;2.30;;;15.20;99.80;;;15.60;64.11;97600.59;4959627;28;124185;-84
2023/10/30 07:13:34;;;;;;;3.40;2.67;;;13.20;98.80;;;15.61;64.09;97598.63;4965141;28;123252;-83
2023/10/30 07:16:01;;;;;;;2.97;2.20;;;15.20;99.60;;;15.65;63.95;97588.34;4955607;28;114317;-83
2023/10/30 07:18:29;;;;;;;3.60;2.27;;;16.60;99.90;;;15.69;63.71;97597.59;4950265;28;114227;-85
2023/10/30 07:20:55;;;;;;;2.97;2.33;;;15.40;99.60;;;15.74;63.93;97602.00;4950472;28;124029;-86
2023/10/30 07:23:22;;;;;;;2.40;2.00;;;16.60;99.90;;;15.78;63.64;97614.81;4966234;28;124016;-85
2023/10/30 07:25:48;;;;;;;3.30;1.90;;;15.30;99.50;;;15.83;63.41;97602.56;4950901;28;114325;-85
2023/10/30 07:28:16;;;;;;;3.00;2.23;;;15.40;99.50;;;15.88;63.49;97602.22;4950697;28;113953;-85
2023/10/30 07:30:42;;;;;;;2.90;2.23;;;15.50;99.50;;;15.90;63.18;97600.66;4965681;28;124046;-86
2023/10/30 07:33:10;;;;;;;2.37;1.80;;;15.50;99.30;;;15.91;63.15;97601.47;4968760;28;124474;-86
2023/10/30 07:35:36;;;;;;;3.50;2.33;;;15.50;99.20;;;15.93;63.10;97603.84;4969067;28;114209;-85
2023/10/30 07:38:03;;;;;;;5.70;2.97;;;15.50;99.20;;;15.92;63.24;97597.50;4969871;28;114023;-83
2023/10/30 07:40:32;;;;;;;3.93;2.50;;;15.50;99.20;;;15.93;63.02;97598.28;4969127;28;124568;-83
2023/10/30 07:42:58;;;;;;;2.30;2.10;;;15.50;99.10;;;15.96;62.95;97597.53;4967911;28;123708;-86
2023/10/30 07:45:27;;;;;;;2.43;1.90;;;15.60;99.20;;;16.00;63.02;97593.63;4963045;28;114509;-84
2023/10/30 07:47:56;;;;;;;5.80;2.70;;;15.60;99.20;;;16.05;63.04;97589.69;4955921;28;113632;-85
2023/10/30 07:50:23;;;;;;;6.37;2.80;;;15.60;99.10;;;16.09;62.99;97585.78;4969070;28;124346;-86
2023/10/30 07:52:49;;;;;;;8.37;2.77;;;15.70;99.10;;;16.13;62.86;97581.03;4969680;28;123738;-85
2023/10/30 07:55:19;;;;;;;5.00;3.40;;;15.70;99.00;;;16.16;62.69;97579.50;4971044;28;115468;-84
2023/10/30 07:57:45;;;;;;;12.60;3.60;;;15.70;98.90;;;16.17;62.47;97578.28;4969756;28;115162;-85
2023/10/30 08:00:12;;;;;;;4.23;2.57;;;15.80;99.00;;;16.19;62.50;97580.72;4970785;28;123430;-83
2023/10/30 08:02:39;;;;;;;5.43;2.73;;;15.80;99.00;;;16.22;62.46;97571.59;4970185;28;123929;-84
2023/10/30 08:05:09;;;;;;;4.53;3.27;;;15.80;98.90;;;16.26;62.21;97567.66;4972506;28;113933;-84
2023/10/30 08:07:36;;;;;;;4.70;2.43;;;15.80;98.80;;;16.27;62.19;97572.06;4969103;28;114456;-84
2023/10/30 08:10:03;;;;;;;10.20;2.50;;;15.80;98.70;;;16.26;61.95;97562.09;4969104;28;124465;-85
2023/10/30 08:12:30;;;;;;;3.27;2.63;;;15.80;98.60;;;16.25;62.03;97570.81;4953115;28;124571;-83
2023/10/30 08:14:56;;;;;;;3.80;2.73;;;15.90;98.60;;;16.28;62.09;97565.31;4951122;28;113292;-83
2023/10/30 08:17:23;;;;;;;7.30;2.50;;;15.90;98.60;;;16.30;62.10;97560.13;4949267;28;115445;-84
2023/10/30 08:19:49;;;;;;;5.43;2.97;;;15.90;98.60;;;16.32;61.92;97563.34;4952194;28;125073;-83
2023/10/30 08:22:16;;;;;;;3.10;2.00;;;17.10;99.10;;;16.32;61.92;97554.19;4968017;28;122808;-85
2023/10/30 08:24:42;;;;;;;3.93;2.73;;;15.90;98.50;;;16.35;61.81;97562.59;4948190;28;114273;-85
2023/10/30 08:27:11;;;;;;;3.20;2.30;;;15.90;98.50;;;16.41;61.93;97562.25;4947742;28;114768;-85
2023/10/30 08:29:40;;;;;;;3.47;2.47;;;16.00;98.50;;;16.42;61.81;97561.09;4948786;28;123943;-85
2023/10/30 08:32:07;;;;;;;4.40;2.63;;;16.00;98.40;;;16.45;61.60;97546.38;4954600;28;123933;-84
2023/10/30 08:34:33;;;;;;;3.10;2.33;;;16.00;98.30;;;16.48;61.47;97553.97;4954287;28;114333;-85
2023/10/30 08:37:02;;;;;;;5.63;2.70;;;16.10;98.40;;;16.50;61.47;97541.25;4955154;28;114354;-84
2023/10/30 08:39:28;;;;;;;5.17;2.67;;;16.10;98.30;;;16.55;61.23;97551.25;4959335;28;124443;-85
2023/10/30 08:41:57;;;;;;;4.17;3.03;;;16.10;98.30;;;16.58;61.15;97550.50;4949737;28;124118;-83
2023/10/30 08:44:27;;;;;;;5.60;3.40;;;16.20;98.20;;;16.60;60.97;97547.31;4956372;28;115674;-85
2023/10/30 08:46:53;;;;;;;4.63;3.60;;;16.30;98.20;;;16.59;60.81;97549.31;4951362;28;114305;-84
2023/10/30 08:49:19;;;;;;;5.83;3.10;;;16.20;98.00;;;16.59;60.97;97549.31;4949150;28;124035;-82
2023/10/30 08:51:47;;;;;;;4.40;2.90;;;16.20;98.00;;;16.61;60.96;97538.56;4949074;28;123852;-83
2023/10/30 08:54:14;;;;;;;3.20;2.80;;;16.20;98.00;;;16.65;60.65;97539.41;4994774;28;112584;-82
2023/10/30 08:56:42;;;;;;;3.87;2.70;;;16.20;97.90;;;16.66;60.64;97541.00;4949310;28;113750;-85
2023/10/30 08:59:09;;;;;;;3.30;2.70;;;16.20;97.90;;;16.67;60.47;97534.25;4948530;28;124501;-83
2023/10/30 09:01:36;;;;;;;5.80;2.90;;;16.30;97.80;;;16.69;60.43;97529.09;4960311;28;123922;-82
2023/10/30 09:04:02;;;;;;;3.87;2.27;;;16.30;97.80;;;16.72;60.53;97533.91;4948791;28;114230;-81
2023/10/30 09:06:29;;;;;;;5.07;3.00;;;16.30;97.80;;;16.73;60.52;97531.91;4956840;28;113866;-82
2023/10/30 09:08:55;;;;;;;4.80;2.57;;;16.30;97.70;;;16.75;60.12;97524.75;4981944;28;124059;-84
2023/10/30 09:11:22;;;;;;;3.47;2.67;;;16.30;97.60;;;16.77;60.23;97524.41;4951344;28;124522;-86
2023/10/30 09:13:49;;;;;;;4.33;2.63;;;16.40;97.70;;;16.80;60.12;97529.22;4961284;28;114306;-84
2023/10/30 09:16:15;;;;;;;2.77;2.47;;;15.30;97.20;;;16.84;60.39;97521.66;4961407;28;114018;-85
2023/10/30 09:18:42;;;;;;;4.87;2.60;;;17.00;97.90;;;16.88;59.95;97521.72;4964517;28;124531;-85
2023/10/30 09:21:09;;;;;;;4.07;2.40;;;16.80;97.70;;;16.90;59.94;97517.34;4955174;28;123858;-86
2023/10/30 09:23:35;;;;;;;6.37;2.67;;;16.50;97.60;;;16.92;59.96;97514.16;4963165;28;113682;-85
2023/10/30 09:26:03;;;;;;;4.83;2.73;;;16.50;97.60;;;16.94;60.12;97509.78;4953719;28;114006;-84
2023/10/30 09:28:29;;;;;;;2.87;2.10;;;16.50;97.50;;;16.97;59.98;97509.03;4959287;28;123728;-85
2023/10/30 09:30:56;;;;;;;3.80;2.30;;;16.60;97.60;;;17.02;59.76;97507.06;4948438;28;123809;-84
2023/10/30 09:33:24;;;;;;;5.10;2.13;;;16.60;97.40;;;17.05;59.62;97504.28;4949255;28;115209;-86
2023/10/30 09:35:51;;;;;;;6.90;2.77;;;16.60;97.40;;;17.06;59.42;97489.19;4949755;28;115758;-85
2023/10/30 09:38:17;;;;;;;3.67;2.20;;;16.70;97.30;;;17.07;59.46;97485.19;4951101;28;124128;-85
2023/10/30 09:40:56;;;;;;;5.60;3.30;;;16.70;97.30;;;17.11;59.38;97488.00;4947790;28;124197;-84
2023/10/30 09:43:28;;;;;;;4.00;2.50;;;16.70;97.20;;;17.14;59.51;97488.03;4964954;28;114439;-86
2023/10/30 09:45:58;;;;;;;5.97;2.37;;;16.70;97.30;;;17.19;59.41;97484.06;4954210;28;114097;-85
2023/10/30 09:48:28;;;;;;;4.27;2.50;;;16.80;97.30;;;17.27;59.33;97490.50;4949385;28;123391;-84
2023/10/30 09:50:56;;;;;;;7.63;2.73;;;16.90;97.30;;;17.31;59.01;97486.53;4979848;28;124483;-86
2023/10/30 09:53:28;;;;;;;3.70;2.77;;;16.90;97.20;;;17.35;58.94;97483.75;4957978;28;114287;-85
2023/10/30 09:55:56;;;;;;;4.10;2.87;;;16.90;97.10;;;17.39;59.17;97479.81;4979586;28;114025;-86
2023/10/30 09:58:23;;;;;;;7.90;2.47;;;17.00;97.20;;;17.44;58.85;97479.44;4961677;28;123962;-84
2023/10/30 10:00:52;;;;;;;3.37;2.60;;;17.00;97.00;;;17.48;58.52;97485.03;4955219;28;123821;-85
2023/10/30 10:03:20;;;;;;;2.30;1.70;;;17.00;96.90;;;17.50;58.52;97473.50;4952726;28;114388;-84
2023/10/30 10:05:58;;;;;;;7.03;2.00;;;17.10;96.90;;;17.54;58.52;97472.28;4969838;28;113570;-84
2023/10/30 10:08:28;;;;;;;3.93;2.43;;;17.20;97.20;;;17.60;58.54;97473.53;4969768;28;124024;-83
2023/10/30 10:10:59;;;;;;;2.90;2.10;;;17.20;96.90;;;17.66;58.37;97471.16;4954043;28;123932;-84
2023/10/30 10:13:31;;;;;;;5.10;2.40;;;17.20;96.80;;;17.72;58.23;97472.38;4973661;28;113650;-85